createdAt,value
2022-09-15T00:05:06.138Z,968.67
2022-09-15T00:17:06.625Z,968.61
2022-09-15T00:29:07.080Z,968.30
2022-09-15T00:41:07.510Z,968.29
2022-09-15T00:53:07.936Z,968.09
2022-09-15T01:05:08.415Z,968.11
2022-09-15T01:17:08.918Z,968.17
2022-09-15T01:29:09.330Z,968.30
2022-09-15T01:53:10.256Z,968.46
2022-09-15T02:05:10.702Z,968.36
2022-09-15T02:17:11.162Z,968.27
2022-09-15T02:29:11.630Z,968.26
2022-09-15T02:41:12.041Z,968.39
2022-09-15T02:53:12.492Z,968.22
2022-09-15T03:05:12.971Z,968.26
2022-09-15T03:17:13.424Z,968.26
2022-09-15T03:29:13.903Z,968.13
2022-09-15T03:41:14.321Z,968.32
2022-09-15T03:53:14.791Z,968.24
2022-09-15T04:05:15.253Z,968.20
2022-09-15T04:17:15.676Z,968.13
2022-09-15T04:29:16.155Z,968.03
2022-09-15T04:41:16.620Z,968.03
2022-09-15T04:53:17.074Z,967.93
2022-09-15T05:05:17.536Z,968.13
2022-09-15T05:17:17.986Z,968.33
2022-09-15T05:29:18.445Z,968.50
2022-09-15T05:41:18.872Z,968.81
2022-09-15T05:53:19.318Z,968.76
2022-09-15T06:05:19.826Z,968.83
2022-09-15T06:17:20.253Z,968.98
2022-09-15T06:29:20.708Z,968.93
2022-09-15T06:41:21.122Z,968.87
2022-09-15T06:53:21.604Z,968.99
2022-09-15T07:05:22.080Z,968.87
2022-09-15T07:17:22.538Z,969.02
2022-09-15T07:29:22.984Z,969.00
2022-09-15T07:41:23.454Z,968.78
2022-09-15T07:53:23.907Z,968.96
2022-09-15T08:05:24.325Z,968.90
2022-09-15T08:17:24.788Z,968.69
2022-09-15T08:29:25.453Z,968.74
2022-09-15T08:41:25.712Z,968.56
2022-09-15T08:53:26.139Z,968.51
2022-09-15T09:05:26.633Z,968.09
2022-09-15T09:17:27.107Z,968.10
2022-09-15T09:29:27.495Z,967.96
2022-09-15T09:41:27.998Z,967.76
2022-09-15T09:53:28.408Z,967.93
2022-09-15T10:05:29.043Z,967.74
2022-09-15T10:17:29.350Z,967.97
2022-09-15T10:29:29.788Z,967.82
2022-09-15T10:41:30.566Z,967.63
2022-09-15T10:53:30.733Z,967.57
2022-09-15T11:05:31.176Z,967.50
2022-09-15T11:17:31.639Z,967.60
2022-09-15T11:29:32.100Z,967.52
2022-09-15T11:41:32.547Z,967.74
2022-09-15T11:53:33.019Z,967.94
2022-09-15T12:05:33.451Z,967.94
2022-09-15T12:17:33.901Z,967.84
2022-09-15T12:29:36.911Z,967.63
2022-09-15T12:41:34.803Z,967.64
2022-09-15T13:05:35.740Z,967.04
2022-09-15T13:17:36.205Z,967.13
2022-09-15T13:29:36.645Z,967.12
2022-09-15T13:41:37.104Z,967.12
2022-09-15T13:53:37.540Z,967.31
2022-09-15T14:05:38.034Z,967.11
2022-09-15T14:17:38.426Z,967.33
2022-09-15T14:29:38.920Z,967.25
2022-09-15T14:41:39.379Z,967.32
2022-09-15T14:53:39.862Z,967.45
2022-09-15T15:05:40.284Z,967.56
2022-09-15T15:17:40.762Z,967.67
2022-09-15T15:29:41.185Z,967.53
2022-09-15T15:41:41.763Z,967.38
2022-09-15T15:53:42.090Z,967.44
2022-09-15T16:05:42.554Z,967.51
2022-09-15T16:17:45.989Z,967.66
2022-09-15T16:29:43.486Z,967.64
2022-09-15T16:41:44.264Z,967.80
2022-09-15T16:53:44.714Z,967.86
2022-09-15T17:05:48.306Z,967.65
2022-09-15T17:17:45.670Z,967.71
2022-09-15T17:29:46.131Z,968.00
2022-09-15T17:41:46.539Z,967.72
2022-09-15T17:53:47.180Z,967.68
2022-09-15T18:05:47.513Z,967.57
2022-09-15T18:17:47.935Z,967.61
2022-09-15T18:29:48.341Z,967.76
2022-09-15T18:53:53.387Z,968.04
2022-09-15T19:05:49.726Z,968.23
2022-09-15T19:17:50.203Z,968.40
2022-09-15T19:29:50.658Z,968.38
2022-09-15T19:41:51.115Z,968.56
2022-09-15T19:53:51.551Z,968.51
2022-09-15T20:05:52.015Z,968.30
2022-09-15T20:17:52.433Z,968.65
2022-09-15T20:29:52.954Z,968.90
2022-09-15T20:41:53.384Z,968.96
2022-09-15T20:53:53.882Z,969.20
2022-09-15T21:05:54.302Z,969.21
2022-09-15T21:17:54.734Z,969.35
2022-09-15T21:29:55.191Z,969.62
2022-09-15T21:41:55.625Z,969.68
2022-09-15T21:53:56.067Z,969.74
2022-09-15T22:05:56.573Z,969.76
2022-09-15T22:17:57.037Z,969.87
2022-09-15T22:29:57.460Z,970.03
2022-09-15T22:41:57.929Z,970.43
2022-09-15T22:53:58.416Z,970.63
2022-09-15T23:05:58.847Z,970.87
2022-09-15T23:17:59.273Z,970.78
2022-09-15T23:29:59.729Z,970.84
2022-09-15T23:42:00.167Z,970.97
2022-09-15T23:54:00.681Z,971.17
